Aurora, Maine
Current Conditions -  °F | °C
As of 4:53 PM on Saturday 25 Oct 2014 (Local Time) from KBGR Reporting Station
Broken Clouds Broken Clouds  
Wind Chill: 54°   Ceiling: 25000
Heat Index: 54°   Visibility: 10mi
Dew Point: 35°   Wind: 3mph
Humidity: 49%   Direction: 180°S
Pressure: 29.54"   Gusts: NA
Location:  44.85°N, 68.33°W
Report Text: KBGR 252053Z 18003KT 10SM FEW130 BKN250 12/02 A2954 RMK AO2 SLP002 T01220017 56013
Loading
Personal Weather Stations






























Interactive Weather Map New forecast layout! Learn more

10-Day Weather Forecast

Advertisements
Track Severe Weather on mobile